Aérodrome :
LOGIN :

S'inscrire | Disclaimer

   EN    FR    IT 

 










Légende :    VFR   VFR Marginal   IFR   IFR Intensif   IFR Très Intensif
Visi : 
Plafond : 
>= 8 km
>= 3000ft
5 à 8 km
1000 à 3000 ft
1500m à 5 km
500 à 1000 ft
800 à 1500m
200 à 500 ft
< 800m
< 200 ft
Symboles :   Orages  Brouillard  Fortes neiges  Fortes précipitations  Vent > 20 kt
SIGMETs :   Divers  Orages  Givrage  Turbulence  Onde Orograph.  Cendres Volcan.






- Altitude de l'aérodrome : 147 ft
- Code IATA : DUS


EDDL - Düsseldorf Int.

DERNIER METAR :
  • 131550Z AUTO 23012KT 9999 FEW037 19/11 Q1013 NOSIG

METARs EXPIRÉS :
  • 131520Z AUTO 22015KT 9999 SCT038 SCT047 19/11 Q1013 TEMPO 25015G25KT
  • 131450Z AUTO 22014KT 9999 FEW042 19/11 Q1012 NOSIG
  • 131420Z AUTO 22016KT 9999 FEW040 18/11 Q1013 TEMPO 25015G25KT
  • 131350Z AUTO 23016KT 9999 FEW037 19/10 Q1013 TEMPO 25015G25KT
  • 131320Z AUTO 24016KT CAVOK 19/11 Q1013 TEMPO 25015G25KT
  • 131250Z AUTO 23014KT 9999 FEW033 SCT045 19/12 Q1013 NOSIG
  • 131220Z AUTO 22015KT 9999 FEW028 OVC045 18/11 Q1013 NOSIG
  • 131150Z AUTO 22016KT 9999 FEW025 SCT036 OVC043 17/11 Q1013 NOSIG
  • 131120Z AUTO 22014KT 9999 SCT026 OVC032 16/11 Q1013 NOSIG

TAF TAF EDDL
Valide du 13 à 12h jusqu'au 14 à 18h UTC


131100Z 1312/1418 23013KT 9999 BKN030
PROB30
TEMPO 1312/1317 23015G25KT SHRA BKN030TCU
BECMG 1315/1318 26008KT
BECMG 1320/1323 17005KT
BECMG 1406/1409 22010KT



MET'MAP, la Météo Aéronautique d'un coup d'oeil ! - Copyright ORBIFLY Décembre 2007 - Disclaimer

ORBIFLY MET'MAP TEAM :

Programmation & Développement : Alexandra Zaïnal
Sur une idée originale de : Baudouin d'Aumeries
Soutien technique & logistique : Manuel Goepfert
Assistance : Marc-Olivier Méhu




SOURCES & CREDITS :

   NOAA